createdAt,value
2023-04-24T00:00:13.206Z,80.20
2023-04-24T00:01:13.179Z,80.20
2023-04-24T00:02:13.223Z,80.10
2023-04-24T00:03:13.311Z,79.90
2023-04-24T00:04:13.432Z,79.90
2023-04-24T00:05:13.142Z,80.10
2023-04-24T00:06:13.124Z,80.20
2023-04-24T00:07:13.120Z,80.20
2023-04-24T00:08:13.097Z,80.10
2023-04-24T00:09:13.134Z,80.04
2023-04-24T00:10:13.134Z,80.04
2023-04-24T00:11:14.088Z,79.73
2023-04-24T00:12:13.056Z,79.80
2023-04-24T00:13:13.054Z,80.00
2023-04-24T00:14:13.029Z,79.90
2023-04-24T00:15:13.057Z,79.90
2023-04-24T00:16:13.757Z,79.93
2023-04-24T00:17:12.995Z,79.73
2023-04-24T00:18:12.989Z,79.52
2023-04-24T00:19:13.103Z,79.63
2023-04-24T00:20:12.964Z,79.73
2023-04-24T00:21:12.970Z,79.63
2023-04-24T00:22:12.945Z,79.43
2023-04-24T00:23:12.961Z,79.52
2023-04-24T00:24:12.919Z,79.63
2023-04-24T00:25:12.923Z,79.73
2023-04-24T00:26:12.909Z,79.73
2023-04-24T00:27:12.929Z,79.83
2023-04-24T00:28:12.880Z,79.93
2023-04-24T00:29:12.863Z,80.04
2023-04-24T00:30:12.862Z,79.93
2023-04-24T00:31:12.858Z,79.83
2023-04-24T00:32:12.921Z,79.93
2023-04-24T00:33:12.859Z,79.93
2023-04-24T00:34:12.928Z,79.93
2023-04-24T00:35:12.808Z,79.83
2023-04-24T00:36:12.801Z,79.66
2023-04-24T00:37:12.786Z,79.77
2023-04-24T00:38:12.768Z,79.97
2023-04-24T00:39:12.795Z,80.07
2023-04-24T00:40:12.734Z,80.32
2023-04-24T00:41:12.743Z,80.62
2023-04-24T00:42:12.723Z,80.83
2023-04-24T00:43:12.717Z,81.03
2023-04-24T00:44:12.735Z,81.03
2023-04-24T00:45:12.697Z,81.13
2023-04-24T00:46:12.734Z,81.34
2023-04-24T00:47:12.683Z,81.58
2023-04-24T00:48:12.720Z,81.65
2023-04-24T00:49:12.653Z,81.79
2023-04-24T00:50:12.636Z,81.68
2023-04-24T00:51:12.620Z,81.79
2023-04-24T00:52:12.663Z,81.88
2023-04-24T00:53:12.694Z,81.88
2023-04-24T00:54:12.586Z,82.09
2023-04-24T00:55:12.590Z,81.79
2023-04-24T00:56:12.593Z,81.10
2023-04-24T00:57:13.545Z,80.90
2023-04-24T00:58:12.570Z,81.10
2023-04-24T00:59:12.542Z,81.21
2023-04-24T01:00:12.524Z,81.31
2023-04-24T01:01:12.545Z,81.41
2023-04-24T01:02:12.626Z,81.65
2023-04-24T01:03:12.593Z,81.86
2023-04-24T01:04:12.602Z,81.76
2023-04-24T01:05:12.489Z,81.56
2023-04-24T01:06:12.454Z,81.56
2023-04-24T01:07:12.461Z,81.45
2023-04-24T01:08:12.417Z,81.59
2023-04-24T01:09:12.459Z,81.59
2023-04-24T01:10:12.410Z,81.70
2023-04-24T01:11:12.446Z,81.90
2023-04-24T01:12:12.416Z,81.90
2023-04-24T01:13:12.412Z,82.00
2023-04-24T01:14:12.380Z,82.21
2023-04-24T01:15:12.370Z,82.31
2023-04-24T01:16:12.397Z,82.31
2023-04-24T01:17:12.354Z,82.21
2023-04-24T01:18:12.341Z,82.41
2023-04-24T01:19:12.334Z,82.51
2023-04-24T01:20:12.307Z,82.65
2023-04-24T01:21:12.280Z,82.76
2023-04-24T01:22:12.267Z,82.86
2023-04-24T01:23:12.267Z,82.86
2023-04-24T01:24:12.245Z,82.86
2023-04-24T01:25:12.255Z,82.86
2023-04-24T01:26:12.244Z,83.06
2023-04-24T01:27:12.234Z,83.17
2023-04-24T01:28:13.096Z,83.27
2023-04-24T01:29:12.189Z,83.47
2023-04-24T01:30:12.205Z,83.58
2023-04-24T01:31:12.209Z,83.98
2023-04-24T01:32:12.164Z,84.09
2023-04-24T01:33:13.660Z,84.09
2023-04-24T01:34:12.176Z,84.19
2023-04-24T01:35:12.174Z,84.29
2023-04-24T01:36:12.121Z,84.29
2023-04-24T01:37:12.178Z,84.29
2023-04-24T01:38:12.135Z,84.39
2023-04-24T01:39:13.035Z,84.60
2023-04-24T01:40:12.232Z,84.60
2023-04-24T01:41:12.918Z,84.60
2023-04-24T01:42:13.522Z,84.60
2023-04-24T01:43:12.094Z,84.60
2023-04-24T01:44:12.379Z,84.50
2023-04-24T01:45:12.018Z,84.50
2023-04-24T01:46:12.028Z,84.50
2023-04-24T01:47:11.998Z,84.50
2023-04-24T01:48:11.992Z,84.50
2023-04-24T01:49:12.009Z,84.60
2023-04-24T01:50:11.970Z,84.50
2023-04-24T01:51:11.936Z,84.46
2023-04-24T01:52:11.945Z,84.36
2023-04-24T01:53:11.934Z,84.25
2023-04-24T01:54:11.958Z,84.15
2023-04-24T01:55:11.948Z,84.19
2023-04-24T01:56:11.910Z,84.19
2023-04-24T01:57:11.875Z,84.09
2023-04-24T01:58:11.892Z,84.09
2023-04-24T01:59:11.866Z,84.09
2023-04-24T02:00:11.859Z,84.29
2023-04-24T02:01:12.065Z,84.39
2023-04-24T02:02:11.910Z,84.29
2023-04-24T02:03:12.052Z,84.09
2023-04-24T02:04:11.939Z,83.88
2023-04-24T02:05:11.787Z,83.88
2023-04-24T02:06:11.798Z,84.09
2023-04-24T02:07:11.788Z,84.09
2023-04-24T02:08:11.789Z,83.88
2023-04-24T02:09:13.261Z,83.78
2023-04-24T02:10:11.836Z,83.88
2023-04-24T02:11:11.728Z,83.98
2023-04-24T02:12:11.730Z,84.09
2023-04-24T02:13:11.732Z,83.98
2023-04-24T02:14:11.706Z,83.88
2023-04-24T02:15:11.772Z,83.88
2023-04-24T02:16:11.810Z,83.88
2023-04-24T02:17:11.681Z,83.88
2023-04-24T02:18:11.653Z,83.98
2023-04-24T02:19:13.089Z,83.88
2023-04-24T02:20:11.627Z,83.68
2023-04-24T02:21:11.774Z,83.78
2023-04-24T02:22:11.640Z,83.68
2023-04-24T02:23:11.715Z,83.68
2023-04-24T02:24:11.794Z,83.88
2023-04-24T02:25:11.552Z,83.98
2023-04-24T02:26:11.569Z,83.98
2023-04-24T02:27:12.994Z,83.98
2023-04-24T02:28:11.534Z,84.19
2023-04-24T02:29:11.632Z,84.29
2023-04-24T02:30:11.530Z,84.09
2023-04-24T02:31:11.483Z,84.23
2023-04-24T02:32:11.556Z,84.33
2023-04-24T02:33:11.465Z,84.33
2023-04-24T02:34:11.458Z,84.44
2023-04-24T02:35:11.518Z,84.53
2023-04-24T02:36:12.029Z,84.64
2023-04-24T02:37:11.469Z,84.53
2023-04-24T02:38:11.432Z,84.64
2023-04-24T02:39:11.419Z,84.64
2023-04-24T02:40:11.798Z,84.64
2023-04-24T02:41:11.393Z,84.64
2023-04-24T02:42:11.380Z,84.74
2023-04-24T02:43:11.370Z,84.74
2023-04-24T02:44:11.659Z,84.84
2023-04-24T02:45:11.632Z,84.74
2023-04-24T02:46:11.464Z,84.84
2023-04-24T02:47:11.327Z,84.84
2023-04-24T02:48:11.409Z,84.95
2023-04-24T02:49:11.291Z,84.95
2023-04-24T02:50:12.822Z,85.05
2023-04-24T02:51:11.290Z,85.05
2023-04-24T02:52:12.008Z,85.15
2023-04-24T02:53:11.260Z,85.25
2023-04-24T02:54:12.108Z,85.05
2023-04-24T02:55:11.239Z,84.95
2023-04-24T02:56:11.223Z,84.95
2023-04-24T02:57:11.215Z,85.05
2023-04-24T02:58:11.204Z,84.95
2023-04-24T02:59:11.182Z,84.84
2023-04-24T03:00:11.212Z,84.84
2023-04-24T03:01:11.294Z,84.80
2023-04-24T03:02:11.335Z,84.70
2023-04-24T03:03:11.269Z,84.80
2023-04-24T03:04:11.494Z,84.80
2023-04-24T03:05:11.125Z,84.80
2023-04-24T03:06:11.126Z,84.91
2023-04-24T03:07:11.114Z,84.80
2023-04-24T03:08:12.565Z,84.70
2023-04-24T03:09:11.141Z,84.70
2023-04-24T03:10:11.115Z,84.70
2023-04-24T03:11:11.226Z,84.70
2023-04-24T03:12:11.151Z,84.60
2023-04-24T03:13:11.033Z,84.60
2023-04-24T03:14:11.032Z,84.60
2023-04-24T03:15:11.003Z,84.50
2023-04-24T03:16:11.053Z,84.50
2023-04-24T03:17:10.978Z,84.50
2023-04-24T03:18:11.046Z,84.36
2023-04-24T03:19:11.130Z,84.36
2023-04-24T03:20:10.968Z,84.25
2023-04-24T03:21:10.942Z,84.15
2023-04-24T03:22:11.180Z,84.15
2023-04-24T03:23:10.927Z,84.05
2023-04-24T03:24:10.942Z,84.05
2023-04-24T03:25:10.920Z,83.98
2023-04-24T03:26:12.397Z,84.09
2023-04-24T03:27:10.868Z,84.29
2023-04-24T03:28:12.348Z,84.29
2023-04-24T03:29:10.852Z,84.19
2023-04-24T03:30:10.880Z,84.09
2023-04-24T03:31:10.872Z,84.19
2023-04-24T03:32:10.826Z,84.39
2023-04-24T03:33:11.095Z,84.60
2023-04-24T03:34:10.794Z,84.60
2023-04-24T03:35:10.915Z,84.70
2023-04-24T03:36:11.513Z,84.80
2023-04-24T03:37:11.721Z,84.70
2023-04-24T03:38:11.723Z,84.60
2023-04-24T03:39:11.544Z,84.60
2023-04-24T03:40:10.764Z,84.60
2023-04-24T03:41:10.717Z,84.60
2023-04-24T03:42:10.777Z,84.50
2023-04-24T03:43:10.730Z,84.39
2023-04-24T03:44:10.726Z,84.39
2023-04-24T03:45:10.692Z,84.50
2023-04-24T03:46:12.146Z,84.60
2023-04-24T03:47:12.114Z,84.50
2023-04-24T03:48:11.497Z,84.19
2023-04-24T03:49:11.607Z,84.09
2023-04-24T03:50:12.515Z,83.98
2023-04-24T03:51:10.643Z,83.88
2023-04-24T03:52:10.611Z,83.98
2023-04-24T03:53:10.584Z,84.09
2023-04-24T03:54:10.569Z,83.98
2023-04-24T03:55:10.558Z,84.09
2023-04-24T03:56:12.006Z,84.19
2023-04-24T03:57:10.594Z,84.39
2023-04-24T03:58:12.488Z,84.29
2023-04-24T03:59:10.510Z,84.39
2023-04-24T04:00:10.522Z,84.29
2023-04-24T04:01:10.493Z,84.29
2023-04-24T04:02:12.049Z,84.39
2023-04-24T04:03:11.461Z,84.50
2023-04-24T04:04:12.072Z,84.50
2023-04-24T04:05:10.509Z,84.50
2023-04-24T04:06:10.453Z,84.60
2023-04-24T04:07:10.591Z,84.60
2023-04-24T04:08:10.425Z,84.50
2023-04-24T04:09:10.442Z,84.50
2023-04-24T04:10:10.390Z,84.60
2023-04-24T04:11:10.381Z,84.60
2023-04-24T04:12:10.374Z,84.60
2023-04-24T04:13:10.360Z,84.39
2023-04-24T04:14:10.364Z,84.29
2023-04-24T04:15:10.363Z,84.29
2023-04-24T04:16:10.386Z,84.29
2023-04-24T04:17:10.338Z,84.29
2023-04-24T04:18:10.412Z,84.39
2023-04-24T04:19:10.295Z,84.39
2023-04-24T04:20:10.345Z,84.39
2023-04-24T04:21:10.271Z,84.29
2023-04-24T04:22:10.262Z,84.39
2023-04-24T04:23:10.311Z,84.39
2023-04-24T04:24:10.232Z,84.50
2023-04-24T04:25:10.231Z,84.29
2023-04-24T04:26:10.243Z,84.29
2023-04-24T04:27:11.171Z,84.39
2023-04-24T04:28:10.207Z,84.50
2023-04-24T04:29:10.185Z,84.39
2023-04-24T04:30:10.204Z,84.29
2023-04-24T04:31:10.204Z,84.09
2023-04-24T04:32:10.215Z,84.09
2023-04-24T04:33:11.736Z,84.09
2023-04-24T04:34:10.134Z,84.29
2023-04-24T04:35:10.111Z,84.19
2023-04-24T04:36:10.127Z,84.19
2023-04-24T04:37:10.107Z,84.09
2023-04-24T04:38:10.112Z,84.09
2023-04-24T04:39:10.058Z,83.88
2023-04-24T04:40:10.085Z,83.58
2023-04-24T04:41:10.107Z,83.58
2023-04-24T04:42:10.033Z,83.58
2023-04-24T04:43:10.068Z,83.78
2023-04-24T04:44:10.071Z,83.88
2023-04-24T04:45:09.998Z,83.78
2023-04-24T04:46:10.052Z,83.78
2023-04-24T04:47:10.028Z,83.58
2023-04-24T04:48:09.972Z,83.58
2023-04-24T04:49:10.014Z,83.58
2023-04-24T04:50:11.061Z,83.47
2023-04-24T04:51:09.938Z,83.37
2023-04-24T04:52:09.918Z,83.37
2023-04-24T04:53:09.922Z,83.17
2023-04-24T04:54:09.962Z,83.06
2023-04-24T04:55:09.914Z,83.06
2023-04-24T04:56:09.892Z,82.96
2023-04-24T04:57:09.869Z,83.06
2023-04-24T04:58:09.861Z,83.06
2023-04-24T04:59:09.844Z,83.17
2023-04-24T05:00:09.864Z,83.27
2023-04-24T05:01:09.885Z,83.37
2023-04-24T05:02:09.903Z,83.47
2023-04-24T05:03:20.082Z,83.58
2023-04-24T05:04:11.092Z,83.58
2023-04-24T05:05:09.969Z,83.17
2023-04-24T05:06:10.732Z,83.06
2023-04-24T05:07:09.767Z,83.31
2023-04-24T05:08:16.620Z,83.41
2023-04-24T05:09:11.774Z,83.61
2023-04-24T05:10:09.726Z,83.92
2023-04-24T05:11:09.720Z,83.82
2023-04-24T05:12:09.723Z,84.23
2023-04-24T05:13:09.703Z,84.58
2023-04-24T05:14:09.715Z,84.88
2023-04-24T05:15:09.667Z,85.30
2023-04-24T05:16:09.659Z,85.71
2023-04-24T05:17:09.677Z,86.11
2023-04-24T05:18:09.714Z,86.63
2023-04-24T05:19:09.650Z,87.14
2023-04-24T05:20:09.634Z,87.49
2023-04-24T05:21:10.569Z,87.79
2023-04-24T05:22:09.600Z,88.21
2023-04-24T05:23:09.612Z,88.72
2023-04-24T05:24:09.617Z,89.23
2023-04-24T05:25:09.558Z,89.64
2023-04-24T05:26:09.553Z,89.84
2023-04-24T05:27:09.524Z,90.16
2023-04-24T05:28:10.497Z,90.36
2023-04-24T05:29:09.514Z,90.46
2023-04-24T05:30:09.527Z,90.67
2023-04-24T05:31:09.511Z,90.77
2023-04-24T05:32:09.472Z,90.87
2023-04-24T05:33:09.491Z,90.77
2023-04-24T05:34:09.477Z,90.77
2023-04-24T05:35:09.476Z,90.87
2023-04-24T05:36:09.467Z,90.87
2023-04-24T05:37:09.441Z,90.87
2023-04-24T05:38:09.409Z,90.87
2023-04-24T05:39:09.397Z,90.97
2023-04-24T05:40:09.391Z,90.97
2023-04-24T05:41:09.406Z,90.97
2023-04-24T05:42:09.364Z,90.87
2023-04-24T05:43:09.355Z,90.67
2023-04-24T05:44:09.332Z,90.56
2023-04-24T05:45:10.334Z,90.36
2023-04-24T05:46:09.382Z,90.16
2023-04-24T05:47:09.385Z,90.05
2023-04-24T05:48:09.332Z,89.95
2023-04-24T05:49:09.295Z,89.84
2023-04-24T05:50:09.269Z,89.75
2023-04-24T05:51:09.270Z,89.75
2023-04-24T05:52:09.276Z,89.84
2023-04-24T05:53:09.265Z,89.95
2023-04-24T05:54:09.231Z,90.05
2023-04-24T05:55:09.212Z,90.05
2023-04-24T05:56:09.226Z,90.16
2023-04-24T05:57:09.189Z,90.26
2023-04-24T05:58:09.199Z,90.32
2023-04-24T05:59:09.178Z,90.32
2023-04-24T06:00:09.174Z,89.90
2023-04-24T06:01:09.184Z,89.81
2023-04-24T06:02:09.221Z,90.01
2023-04-24T06:03:09.410Z,89.90
2023-04-24T06:04:09.329Z,89.81
2023-04-24T06:05:09.184Z,89.81
2023-04-24T06:06:09.123Z,89.90
2023-04-24T06:07:09.124Z,90.11
2023-04-24T06:08:09.071Z,89.90
2023-04-24T06:09:09.107Z,89.81
2023-04-24T06:10:09.051Z,89.90
2023-04-24T06:11:09.036Z,89.81
2023-04-24T06:12:09.032Z,89.81
2023-04-24T06:13:09.041Z,90.01
2023-04-24T06:14:09.008Z,90.32
2023-04-24T06:15:09.010Z,90.52
2023-04-24T06:16:10.011Z,90.77
2023-04-24T06:17:08.974Z,90.87
2023-04-24T06:18:08.991Z,90.97
2023-04-24T06:19:08.954Z,91.18
2023-04-24T06:20:08.965Z,91.38
2023-04-24T06:21:09.729Z,91.59
2023-04-24T06:22:10.899Z,91.80
2023-04-24T06:23:08.902Z,91.90
2023-04-24T06:24:08.922Z,92.00
2023-04-24T06:25:08.890Z,92.21
2023-04-24T06:26:08.868Z,92.31
2023-04-24T06:27:09.817Z,92.41
2023-04-24T06:28:08.870Z,92.41
2023-04-24T06:29:08.840Z,92.41
2023-04-24T06:30:09.658Z,92.41
2023-04-24T06:31:08.817Z,92.41
2023-04-24T06:32:08.860Z,92.21
2023-04-24T06:33:19.386Z,92.21
2023-04-24T06:34:09.779Z,92.21
2023-04-24T06:35:09.686Z,92.31
2023-04-24T06:36:08.781Z,92.31
2023-04-24T06:37:08.752Z,92.51
2023-04-24T06:38:08.736Z,92.41
2023-04-24T06:39:08.771Z,92.41
2023-04-24T06:40:08.893Z,92.46
2023-04-24T06:41:08.713Z,92.46
2023-04-24T06:42:08.687Z,92.55
2023-04-24T06:43:08.689Z,92.76
2023-04-24T06:44:08.663Z,92.97
2023-04-24T06:45:08.709Z,93.17
2023-04-24T06:46:08.669Z,93.38
2023-04-24T06:47:08.688Z,93.48
2023-04-24T06:48:09.628Z,93.48
2023-04-24T06:49:09.319Z,93.59
2023-04-24T06:50:08.645Z,93.38
2023-04-24T06:51:08.606Z,93.38
2023-04-24T06:52:08.584Z,93.38
2023-04-24T06:53:08.603Z,93.42
2023-04-24T06:54:08.691Z,93.63
2023-04-24T06:55:08.553Z,93.83
2023-04-24T06:56:08.546Z,94.14
2023-04-24T06:57:09.719Z,94.24
2023-04-24T06:58:08.552Z,94.34
2023-04-24T06:59:08.553Z,94.34
2023-04-24T07:00:08.488Z,94.45
2023-04-24T07:01:09.066Z,94.65
2023-04-24T07:02:08.612Z,94.85
2023-04-24T07:03:08.594Z,94.96
2023-04-24T07:04:08.611Z,94.96
2023-04-24T07:05:08.447Z,94.96
2023-04-24T07:06:08.840Z,95.06
2023-04-24T07:07:08.431Z,95.06
2023-04-24T07:08:08.525Z,95.06
2023-04-24T07:09:08.419Z,95.17
2023-04-24T07:10:08.377Z,94.96
2023-04-24T07:11:08.402Z,94.85
2023-04-24T07:12:08.380Z,94.85
2023-04-24T07:13:08.336Z,94.90
2023-04-24T07:14:08.342Z,94.96
2023-04-24T07:15:08.403Z,95.06
2023-04-24T07:16:08.374Z,95.31
2023-04-24T07:17:08.319Z,95.52
2023-04-24T07:18:08.353Z,95.62
2023-04-24T07:19:08.294Z,95.62
2023-04-24T07:20:08.259Z,95.62
2023-04-24T07:21:08.316Z,95.72
2023-04-24T07:22:08.548Z,95.62
2023-04-24T07:23:08.228Z,95.62
2023-04-24T07:24:08.256Z,95.52
2023-04-24T07:25:08.462Z,95.42
2023-04-24T07:26:08.189Z,95.52
2023-04-24T07:27:08.194Z,95.36
2023-04-24T07:28:08.162Z,95.25
2023-04-24T07:29:08.168Z,95.25
2023-04-24T07:30:08.174Z,95.15
2023-04-24T07:31:08.173Z,95.05
2023-04-24T07:32:08.148Z,94.95
2023-04-24T07:33:08.320Z,94.99
2023-04-24T07:34:08.780Z,94.99
2023-04-24T07:35:08.111Z,94.99
2023-04-24T07:36:08.100Z,94.78
2023-04-24T07:37:08.062Z,94.89
2023-04-24T07:38:09.562Z,94.99
2023-04-24T07:39:08.087Z,95.09
2023-04-24T07:40:08.041Z,95.20
2023-04-24T07:41:08.053Z,95.40
2023-04-24T07:42:08.006Z,95.71
2023-04-24T07:43:08.860Z,95.92
2023-04-24T07:44:07.975Z,95.81
2023-04-24T07:45:07.981Z,95.71
2023-04-24T07:46:08.987Z,95.71
2023-04-24T07:47:07.969Z,95.81
2023-04-24T07:48:07.949Z,95.71
2023-04-24T07:49:13.677Z,95.61
2023-04-24T07:50:09.802Z,95.56
2023-04-24T07:51:07.927Z,95.56
2023-04-24T07:52:07.886Z,95.50
2023-04-24T07:53:07.898Z,95.30
2023-04-24T07:54:08.117Z,95.09
2023-04-24T07:55:07.889Z,94.99
2023-04-24T07:56:07.850Z,94.89
2023-04-24T07:57:07.851Z,94.89
2023-04-24T07:58:07.828Z,95.03
2023-04-24T07:59:07.854Z,95.24
2023-04-24T08:00:07.794Z,95.45
2023-04-24T08:01:08.666Z,95.71
2023-04-24T08:02:07.898Z,95.92
2023-04-24T08:03:08.763Z,96.02
2023-04-24T08:04:08.832Z,96.17
2023-04-24T08:05:07.996Z,96.37
2023-04-24T08:06:07.767Z,96.47
2023-04-24T08:07:07.755Z,96.53
2023-04-24T08:08:09.173Z,96.64
2023-04-24T08:09:08.713Z,96.64
2023-04-24T08:10:07.679Z,96.73
2023-04-24T08:11:07.683Z,96.84
2023-04-24T08:12:07.665Z,96.94
2023-04-24T08:13:07.705Z,96.73
2023-04-24T08:14:09.697Z,96.73
2023-04-24T08:15:07.638Z,96.73
2023-04-24T08:16:07.722Z,96.73
2023-04-24T08:17:07.701Z,96.84
2023-04-24T08:18:07.624Z,96.84
2023-04-24T08:19:07.604Z,96.94
2023-04-24T08:20:07.682Z,97.15
2023-04-24T08:21:07.559Z,97.25
2023-04-24T08:22:07.555Z,97.36
2023-04-24T08:23:07.696Z,97.45
2023-04-24T08:24:07.588Z,97.56
2023-04-24T08:25:07.626Z,97.77
2023-04-24T08:26:07.509Z,97.87
2023-04-24T08:27:08.990Z,97.97
2023-04-24T08:28:07.533Z,97.97
2023-04-24T08:29:07.617Z,98.07
2023-04-24T08:30:07.478Z,98.07
2023-04-24T08:31:07.594Z,98.07
2023-04-24T08:32:07.813Z,98.07
2023-04-24T08:33:07.590Z,98.07
2023-04-24T08:34:07.448Z,98.18
2023-04-24T08:35:07.419Z,98.18
2023-04-24T08:36:07.687Z,98.28
2023-04-24T08:37:07.716Z,98.28
2023-04-24T08:38:07.409Z,98.38
2023-04-24T08:39:07.381Z,98.38
2023-04-24T08:40:07.358Z,98.38
2023-04-24T08:41:07.337Z,98.44
2023-04-24T08:42:07.340Z,98.54
2023-04-24T08:43:07.338Z,98.65
2023-04-24T08:44:09.468Z,98.75
2023-04-24T08:45:07.370Z,98.75
2023-04-24T08:46:11.546Z,98.85
2023-04-24T08:47:07.424Z,98.96
2023-04-24T08:48:13.782Z,98.96
2023-04-24T08:49:08.285Z,98.96
2023-04-24T08:50:07.638Z,99.05
2023-04-24T08:51:07.497Z,99.05
2023-04-24T08:52:07.683Z,99.05
2023-04-24T08:53:08.170Z,99.05
2023-04-24T08:54:07.204Z,99.16
2023-04-24T08:55:08.726Z,99.16
2023-04-24T08:56:07.215Z,99.16
2023-04-24T08:57:07.198Z,99.26
2023-04-24T08:58:07.176Z,99.26
2023-04-24T08:59:07.318Z,99.37
2023-04-24T09:00:08.250Z,99.37
2023-04-24T09:01:07.153Z,99.47
2023-04-24T09:02:07.164Z,99.47
2023-04-24T09:03:08.665Z,99.57
2023-04-24T09:04:07.233Z,99.67
2023-04-24T09:05:07.081Z,99.67
2023-04-24T09:06:07.139Z,99.67
2023-04-24T09:07:07.071Z,99.77
2023-04-24T09:08:07.353Z,99.77
2023-04-24T09:09:07.025Z,99.77
2023-04-24T09:10:07.021Z,99.77
2023-04-24T09:11:07.023Z,99.67
2023-04-24T09:12:07.019Z,99.67
2023-04-24T09:13:07.412Z,99.57
2023-04-24T09:14:06.989Z,99.47
2023-04-24T09:15:06.971Z,99.26
2023-04-24T09:16:07.212Z,99.16
2023-04-24T09:17:07.070Z,99.05
2023-04-24T09:18:08.970Z,98.96
2023-04-24T09:19:06.922Z,98.85
2023-04-24T09:20:06.903Z,98.85
2023-04-24T09:21:07.450Z,98.75
2023-04-24T09:22:06.919Z,98.85
2023-04-24T09:23:06.892Z,98.85
2023-04-24T09:24:07.446Z,98.96
2023-04-24T09:25:06.886Z,99.05
2023-04-24T09:26:08.318Z,99.05
2023-04-24T09:27:06.854Z,99.10
2023-04-24T09:28:06.828Z,99.10
2023-04-24T09:29:06.799Z,99.21
2023-04-24T09:30:06.800Z,99.21
2023-04-24T09:31:06.776Z,99.21
2023-04-24T09:32:06.813Z,99.21
2023-04-24T09:33:06.917Z,99.21
2023-04-24T09:34:08.256Z,99.21
2023-04-24T09:35:06.745Z,99.31
2023-04-24T09:36:06.730Z,99.41
2023-04-24T09:37:07.546Z,99.51
2023-04-24T09:38:07.683Z,99.62
2023-04-24T09:39:06.729Z,99.82
2023-04-24T09:40:06.691Z,99.93
2023-04-24T09:41:06.724Z,99.99
2023-04-24T09:42:06.668Z,99.99
2023-04-24T09:43:06.681Z,99.99
2023-04-24T09:44:06.659Z,99.99
2023-04-24T09:45:14.664Z,99.99
2023-04-24T09:46:07.669Z,99.99
2023-04-24T09:47:06.608Z,99.99
2023-04-24T09:48:06.651Z,99.99
2023-04-24T09:49:06.608Z,99.99
2023-04-24T09:50:06.574Z,99.99
2023-04-24T09:51:06.564Z,99.99
2023-04-24T09:52:06.591Z,99.99
2023-04-24T09:53:06.557Z,99.99
2023-04-24T09:54:06.544Z,99.99
2023-04-24T09:55:06.954Z,99.99
2023-04-24T09:56:07.483Z,99.99
2023-04-24T09:57:06.513Z,99.99
2023-04-24T09:58:06.512Z,99.99
2023-04-24T09:59:07.471Z,99.99
2023-04-24T10:00:06.598Z,99.99
2023-04-24T10:01:06.515Z,99.99
2023-04-24T10:02:06.934Z,99.99
2023-04-24T10:03:06.471Z,99.99
2023-04-24T10:04:06.477Z,99.99
2023-04-24T10:05:06.455Z,99.99
2023-04-24T10:06:06.720Z,99.99
2023-04-24T10:07:07.899Z,99.99
2023-04-24T10:08:06.577Z,99.99
2023-04-24T10:09:07.819Z,99.99
2023-04-24T10:10:06.675Z,99.99
2023-04-24T10:11:07.805Z,99.99
2023-04-24T10:12:06.326Z,99.99
2023-04-24T10:13:06.579Z,99.99
2023-04-24T10:14:06.309Z,99.99
2023-04-24T10:15:06.302Z,99.99
2023-04-24T10:16:06.355Z,99.99
2023-04-24T10:17:06.266Z,99.99
2023-04-24T10:18:06.324Z,99.99
2023-04-24T10:19:06.281Z,99.99
2023-04-24T10:20:06.245Z,99.99
2023-04-24T10:21:06.228Z,99.99
2023-04-24T10:22:08.329Z,99.99
2023-04-24T10:23:06.456Z,99.99
2023-04-24T10:24:06.205Z,99.99
2023-04-24T10:25:06.282Z,99.99
2023-04-24T10:26:06.177Z,99.99
2023-04-24T10:27:06.179Z,99.99
2023-04-24T10:28:07.763Z,99.99
2023-04-24T10:29:06.156Z,99.99
2023-04-24T10:30:06.145Z,99.99
2023-04-24T10:31:07.085Z,99.99
2023-04-24T10:32:06.674Z,99.99
2023-04-24T10:33:06.139Z,99.99
2023-04-24T10:34:06.117Z,99.99
2023-04-24T10:35:06.063Z,99.99
2023-04-24T10:36:06.232Z,99.99
2023-04-24T10:37:06.049Z,99.99
2023-04-24T10:38:06.049Z,99.99
2023-04-24T10:39:06.030Z,99.99
2023-04-24T10:40:06.029Z,99.99
2023-04-24T10:41:06.006Z,99.99
2023-04-24T10:42:05.992Z,99.99
2023-04-24T10:43:06.006Z,99.99
2023-04-24T10:44:06.046Z,99.99
2023-04-24T10:45:05.959Z,99.93
2023-04-24T10:46:05.996Z,99.83
2023-04-24T10:47:06.117Z,99.83
2023-04-24T10:48:07.481Z,99.93
2023-04-24T10:49:05.946Z,99.89
2023-04-24T10:50:05.896Z,99.79
2023-04-24T10:51:05.881Z,99.68
2023-04-24T10:52:05.926Z,99.68
2023-04-24T10:53:05.869Z,99.68
2023-04-24T10:54:05.857Z,99.58
2023-04-24T10:55:05.836Z,99.48
2023-04-24T10:56:05.877Z,99.48
2023-04-24T10:57:05.814Z,99.38
2023-04-24T10:58:05.850Z,99.17
2023-04-24T10:59:05.875Z,99.07
2023-04-24T11:00:07.178Z,99.02
2023-04-24T11:01:05.841Z,98.92
2023-04-24T11:02:05.806Z,98.92
2023-04-24T11:03:05.898Z,98.92
2023-04-24T11:04:05.878Z,98.87
2023-04-24T11:05:05.749Z,98.87
2023-04-24T11:06:05.755Z,98.87
2023-04-24T11:07:05.707Z,98.77
2023-04-24T11:08:07.288Z,98.67
2023-04-24T11:09:05.692Z,98.16
2023-04-24T11:10:05.673Z,97.85
2023-04-24T11:11:07.132Z,97.64
2023-04-24T11:12:05.674Z,97.33
2023-04-24T11:13:05.962Z,96.92
2023-04-24T11:14:05.639Z,96.82
2023-04-24T11:15:05.914Z,96.62
2023-04-24T11:16:05.700Z,96.41
2023-04-24T11:17:06.322Z,96.31
2023-04-24T11:18:05.669Z,95.94
2023-04-24T11:19:05.616Z,95.74
2023-04-24T11:20:18.903Z,95.74
2023-04-24T11:21:06.558Z,95.74
2023-04-24T11:22:05.578Z,95.43
2023-04-24T11:23:05.517Z,95.12
2023-04-24T11:24:06.998Z,94.92
2023-04-24T11:25:05.502Z,94.87
2023-04-24T11:26:05.514Z,94.87
2023-04-24T11:27:05.577Z,94.87
2023-04-24T11:28:05.527Z,94.98
2023-04-24T11:29:07.012Z,94.87
2023-04-24T11:30:05.503Z,94.77
2023-04-24T11:31:05.478Z,94.77
2023-04-24T11:32:05.493Z,94.77
2023-04-24T11:33:05.656Z,94.87
2023-04-24T11:34:05.404Z,94.98
2023-04-24T11:35:05.394Z,95.03
2023-04-24T11:36:05.388Z,94.93
2023-04-24T11:37:05.383Z,95.03
2023-04-24T11:39:05.365Z,94.01
2023-04-24T11:40:05.371Z,93.70
2023-04-24T11:41:05.322Z,93.19
2023-04-24T11:42:05.317Z,92.78
2023-04-24T11:43:07.745Z,92.27
2023-04-24T11:44:05.295Z,92.32
2023-04-24T11:45:05.309Z,91.71
2023-04-24T11:46:06.392Z,91.30
2023-04-24T11:47:05.263Z,91.20
2023-04-24T11:48:06.284Z,90.58
2023-04-24T11:49:05.246Z,90.44
2023-04-24T11:50:05.232Z,90.75
2023-04-24T11:51:05.224Z,90.64
2023-04-24T11:52:06.659Z,90.34
2023-04-24T11:53:05.214Z,90.13
2023-04-24T11:54:05.182Z,89.72
2023-04-24T11:55:05.168Z,89.00
2023-04-24T11:56:06.306Z,89.04
2023-04-24T11:57:05.161Z,89.04
2023-04-24T11:58:05.131Z,88.64
2023-04-24T11:59:05.122Z,88.74
2023-04-24T12:00:07.033Z,89.19
2023-04-24T12:01:05.219Z,89.56
2023-04-24T12:02:05.462Z,90.01
2023-04-24T12:03:05.224Z,90.48
2023-04-24T12:04:05.241Z,90.62
2023-04-24T12:05:06.297Z,90.73
2023-04-24T12:06:05.574Z,90.52
2023-04-24T12:07:05.061Z,90.32
2023-04-24T12:08:05.078Z,89.60
2023-04-24T12:09:11.662Z,88.88
2023-04-24T12:10:06.011Z,88.68
2023-04-24T12:11:05.538Z,88.98
2023-04-24T12:12:05.050Z,89.50
2023-04-24T12:13:04.957Z,87.96
2023-04-24T12:14:04.963Z,86.42
2023-04-24T12:15:04.971Z,84.58
2023-04-24T12:16:04.949Z,84.47
2023-04-24T12:17:04.927Z,85.19
2023-04-24T12:18:04.967Z,85.09
2023-04-24T12:19:04.914Z,84.37
2023-04-24T12:20:04.926Z,84.78
2023-04-24T12:21:05.357Z,85.15
2023-04-24T12:22:04.877Z,85.46
2023-04-24T12:23:05.004Z,84.44
2023-04-24T12:24:04.854Z,84.23
2023-04-24T12:25:04.849Z,83.92
2023-04-24T12:26:05.114Z,81.36
2023-04-24T12:27:04.811Z,81.67
2023-04-24T12:28:04.837Z,81.57
2023-04-24T12:29:06.291Z,80.64
2023-04-24T12:30:04.863Z,79.62
2023-04-24T12:31:04.810Z,79.41
2023-04-24T12:32:04.777Z,79.72
2023-04-24T12:33:04.894Z,80.23
2023-04-24T12:34:04.763Z,80.03
2023-04-24T12:35:04.749Z,80.19
2023-04-24T12:36:04.733Z,80.40
2023-04-24T12:37:04.687Z,81.01
2023-04-24T12:38:04.688Z,80.51
2023-04-24T12:39:04.688Z,80.46
2023-04-24T12:40:04.672Z,80.67
2023-04-24T12:41:04.674Z,80.16
2023-04-24T12:42:04.693Z,80.16
2023-04-24T12:43:04.641Z,79.96
2023-04-24T12:44:04.620Z,79.96
2023-04-24T12:45:04.688Z,80.05
2023-04-24T12:46:04.622Z,80.16
2023-04-24T12:47:04.613Z,79.75
2023-04-24T12:48:04.621Z,80.12
2023-04-24T12:49:05.502Z,80.53
2023-04-24T12:50:04.567Z,79.24
2023-04-24T12:51:05.400Z,78.93
2023-04-24T12:52:04.595Z,78.63
2023-04-24T12:53:04.522Z,78.42